sensor_id;sensor_type;location;lat;lon;timestamp;P1;durP1;ratioP1;P2;durP2;ratioP2
60344;SDS011;46188;52.324;8.032;2023-05-07T00:00:43;18.30;;;13.60;;
60344;SDS011;46188;52.324;8.032;2023-05-07T00:03:08;18.63;;;15.13;;
60344;SDS011;46188;52.324;8.032;2023-05-07T00:05:34;19.55;;;14.20;;
60344;SDS011;46188;52.324;8.032;2023-05-07T00:07:59;20.13;;;14.90;;
60344;SDS011;46188;52.324;8.032;2023-05-07T00:10:24;20.70;;;15.20;;
60344;SDS011;46188;52.324;8.032;2023-05-07T00:12:50;21.92;;;14.85;;
60344;SDS011;46188;52.324;8.032;2023-05-07T00:15:15;18.92;;;14.23;;
60344;SDS011;46188;52.324;8.032;2023-05-07T00:17:40;19.77;;;14.82;;
60344;SDS011;46188;52.324;8.032;2023-05-07T00:20:06;20.65;;;14.70;;
60344;SDS011;46188;52.324;8.032;2023-05-07T00:22:32;20.27;;;14.05;;
60344;SDS011;46188;52.324;8.032;2023-05-07T00:24:57;25.20;;;15.00;;
60344;SDS011;46188;52.324;8.032;2023-05-07T00:27:24;20.65;;;14.55;;
60344;SDS011;46188;52.324;8.032;2023-05-07T00:29:49;23.30;;;16.67;;
60344;SDS011;46188;52.324;8.032;2023-05-07T00:32:15;22.63;;;15.38;;
60344;SDS011;46188;52.324;8.032;2023-05-07T00:34:40;23.67;;;15.82;;
60344;SDS011;46188;52.324;8.032;2023-05-07T00:37:05;20.95;;;16.52;;
60344;SDS011;46188;52.324;8.032;2023-05-07T00:39:32;21.90;;;16.38;;
60344;SDS011;46188;52.324;8.032;2023-05-07T00:41:58;24.02;;;15.98;;
60344;SDS011;46188;52.324;8.032;2023-05-07T00:44:23;23.08;;;16.45;;
60344;SDS011;46188;52.324;8.032;2023-05-07T00:46:48;21.98;;;15.48;;
60344;SDS011;46188;52.324;8.032;2023-05-07T00:49:14;23.95;;;16.58;;
60344;SDS011;46188;52.324;8.032;2023-05-07T00:51:40;22.98;;;17.00;;
60344;SDS011;46188;52.324;8.032;2023-05-07T00:54:05;21.52;;;16.73;;
60344;SDS011;46188;52.324;8.032;2023-05-07T00:56:31;23.73;;;16.90;;
60344;SDS011;46188;52.324;8.032;2023-05-07T00:58:56;25.85;;;17.48;;
60344;SDS011;46188;52.324;8.032;2023-05-07T01:01:22;24.35;;;17.25;;
60344;SDS011;46188;52.324;8.032;2023-05-07T01:03:47;23.65;;;17.40;;
60344;SDS011;46188;52.324;8.032;2023-05-07T01:06:12;25.77;;;17.48;;
60344;SDS011;46188;52.324;8.032;2023-05-07T01:08:41;28.00;;;18.42;;
60344;SDS011;46188;52.324;8.032;2023-05-07T01:11:07;25.00;;;17.75;;
60344;SDS011;46188;52.324;8.032;2023-05-07T01:13:34;25.05;;;17.30;;
60344;SDS011;46188;52.324;8.032;2023-05-07T01:16:00;25.10;;;17.38;;
60344;SDS011;46188;52.324;8.032;2023-05-07T01:18:26;25.33;;;18.73;;
60344;SDS011;46188;52.324;8.032;2023-05-07T01:20:52;27.50;;;18.38;;
60344;SDS011;46188;52.324;8.032;2023-05-07T01:23:17;25.95;;;18.45;;
60344;SDS011;46188;52.324;8.032;2023-05-07T01:25:43;26.95;;;18.40;;
60344;SDS011;46188;52.324;8.032;2023-05-07T01:28:08;26.25;;;18.45;;
60344;SDS011;46188;52.324;8.032;2023-05-07T01:30:33;27.35;;;18.02;;
60344;SDS011;46188;52.324;8.032;2023-05-07T01:33:04;26.75;;;17.90;;
60344;SDS011;46188;52.324;8.032;2023-05-07T01:35:38;29.93;;;18.53;;
60344;SDS011;46188;52.324;8.032;2023-05-07T01:38:06;30.85;;;20.33;;
60344;SDS011;46188;52.324;8.032;2023-05-07T01:40:33;27.77;;;20.17;;
60344;SDS011;46188;52.324;8.032;2023-05-07T01:42:59;27.38;;;19.25;;
60344;SDS011;46188;52.324;8.032;2023-05-07T01:45:25;29.23;;;20.02;;
60344;SDS011;46188;52.324;8.032;2023-05-07T01:47:50;32.20;;;19.95;;
60344;SDS011;46188;52.324;8.032;2023-05-07T01:50:18;27.63;;;20.17;;
60344;SDS011;46188;52.324;8.032;2023-05-07T01:52:44;33.08;;;21.55;;
60344;SDS011;46188;52.324;8.032;2023-05-07T01:55:09;30.17;;;20.40;;
60344;SDS011;46188;52.324;8.032;2023-05-07T01:57:34;30.85;;;20.77;;
60344;SDS011;46188;52.324;8.032;2023-05-07T02:00:00;31.05;;;21.52;;
60344;SDS011;46188;52.324;8.032;2023-05-07T02:02:25;33.42;;;21.73;;
60344;SDS011;46188;52.324;8.032;2023-05-07T02:04:51;32.13;;;21.50;;
60344;SDS011;46188;52.324;8.032;2023-05-07T02:07:16;30.30;;;22.60;;
60344;SDS011;46188;52.324;8.032;2023-05-07T02:09:41;29.35;;;21.63;;
60344;SDS011;46188;52.324;8.032;2023-05-07T02:12:06;33.05;;;22.70;;
60344;SDS011;46188;52.324;8.032;2023-05-07T02:14:32;35.30;;;23.70;;
60344;SDS011;46188;52.324;8.032;2023-05-07T02:16:57;31.30;;;21.92;;
60344;SDS011;46188;52.324;8.032;2023-05-07T02:19:22;33.88;;;23.15;;
60344;SDS011;46188;52.324;8.032;2023-05-07T02:21:47;33.05;;;22.27;;
60344;SDS011;46188;52.324;8.032;2023-05-07T02:24:13;31.77;;;22.30;;
60344;SDS011;46188;52.324;8.032;2023-05-07T02:26:39;33.45;;;22.90;;
60344;SDS011;46188;52.324;8.032;2023-05-07T02:29:05;34.33;;;22.98;;
60344;SDS011;46188;52.324;8.032;2023-05-07T02:31:31;30.35;;;21.77;;
60344;SDS011;46188;52.324;8.032;2023-05-07T02:33:56;32.55;;;21.40;;
60344;SDS011;46188;52.324;8.032;2023-05-07T02:36:21;32.78;;;22.45;;
60344;SDS011;46188;52.324;8.032;2023-05-07T02:38:46;36.70;;;23.00;;
60344;SDS011;46188;52.324;8.032;2023-05-07T02:41:11;38.03;;;23.13;;
60344;SDS011;46188;52.324;8.032;2023-05-07T02:43:37;32.75;;;23.25;;
60344;SDS011;46188;52.324;8.032;2023-05-07T02:46:05;31.33;;;22.10;;
60344;SDS011;46188;52.324;8.032;2023-05-07T02:48:32;33.47;;;23.40;;
60344;SDS011;46188;52.324;8.032;2023-05-07T02:50:58;35.03;;;24.33;;
60344;SDS011;46188;52.324;8.032;2023-05-07T02:53:24;37.25;;;23.52;;
60344;SDS011;46188;52.324;8.032;2023-05-07T02:55:53;32.20;;;23.05;;
60344;SDS011;46188;52.324;8.032;2023-05-07T02:58:18;34.42;;;23.50;;
60344;SDS011;46188;52.324;8.032;2023-05-07T03:00:44;37.67;;;24.90;;
60344;SDS011;46188;52.324;8.032;2023-05-07T03:03:09;34.20;;;23.75;;
60344;SDS011;46188;52.324;8.032;2023-05-07T03:05:35;34.80;;;25.13;;
60344;SDS011;46188;52.324;8.032;2023-05-07T03:08:01;38.95;;;25.55;;
60344;SDS011;46188;52.324;8.032;2023-05-07T03:10:26;33.65;;;23.52;;
60344;SDS011;46188;52.324;8.032;2023-05-07T03:12:51;38.08;;;25.77;;
60344;SDS011;46188;52.324;8.032;2023-05-07T03:15:16;38.50;;;27.10;;
60344;SDS011;46188;52.324;8.032;2023-05-07T03:17:42;38.15;;;25.48;;
60344;SDS011;46188;52.324;8.032;2023-05-07T03:20:07;38.58;;;25.52;;
60344;SDS011;46188;52.324;8.032;2023-05-07T03:22:34;36.30;;;25.52;;
60344;SDS011;46188;52.324;8.032;2023-05-07T03:24:59;35.83;;;24.88;;
60344;SDS011;46188;52.324;8.032;2023-05-07T03:27:24;37.17;;;25.40;;
60344;SDS011;46188;52.324;8.032;2023-05-07T03:29:50;39.60;;;25.08;;
60344;SDS011;46188;52.324;8.032;2023-05-07T03:32:15;39.15;;;26.73;;
60344;SDS011;46188;52.324;8.032;2023-05-07T03:34:40;38.53;;;25.23;;
60344;SDS011;46188;52.324;8.032;2023-05-07T03:37:06;38.08;;;25.55;;
60344;SDS011;46188;52.324;8.032;2023-05-07T03:39:31;37.88;;;26.05;;
60344;SDS011;46188;52.324;8.032;2023-05-07T03:41:57;37.63;;;26.95;;
60344;SDS011;46188;52.324;8.032;2023-05-07T03:44:22;38.40;;;25.38;;
60344;SDS011;46188;52.324;8.032;2023-05-07T03:46:48;40.13;;;26.50;;
60344;SDS011;46188;52.324;8.032;2023-05-07T03:49:13;41.05;;;26.05;;
60344;SDS011;46188;52.324;8.032;2023-05-07T03:51:38;40.85;;;26.90;;
60344;SDS011;46188;52.324;8.032;2023-05-07T03:54:03;41.58;;;25.75;;
60344;SDS011;46188;52.324;8.032;2023-05-07T03:56:29;44.10;;;28.00;;
60344;SDS011;46188;52.324;8.032;2023-05-07T03:58:56;41.80;;;26.85;;
60344;SDS011;46188;52.324;8.032;2023-05-07T04:01:21;42.83;;;25.30;;
60344;SDS011;46188;52.324;8.032;2023-05-07T04:03:46;42.35;;;25.90;;
60344;SDS011;46188;52.324;8.032;2023-05-07T04:06:11;38.33;;;26.23;;
60344;SDS011;46188;52.324;8.032;2023-05-07T04:08:37;41.67;;;26.48;;
60344;SDS011;46188;52.324;8.032;2023-05-07T04:11:02;41.33;;;26.20;;
60344;SDS011;46188;52.324;8.032;2023-05-07T04:13:27;39.55;;;25.38;;
60344;SDS011;46188;52.324;8.032;2023-05-07T04:15:54;41.72;;;27.52;;
60344;SDS011;46188;52.324;8.032;2023-05-07T04:18:20;41.40;;;25.92;;
60344;SDS011;46188;52.324;8.032;2023-05-07T04:20:46;42.20;;;25.20;;
60344;SDS011;46188;52.324;8.032;2023-05-07T04:23:12;39.42;;;25.30;;
60344;SDS011;46188;52.324;8.032;2023-05-07T04:25:37;40.30;;;24.95;;
60344;SDS011;46188;52.324;8.032;2023-05-07T04:28:03;38.63;;;24.58;;
60344;SDS011;46188;52.324;8.032;2023-05-07T04:30:28;39.38;;;24.75;;
60344;SDS011;46188;52.324;8.032;2023-05-07T04:32:53;36.70;;;25.17;;
60344;SDS011;46188;52.324;8.032;2023-05-07T04:35:19;35.05;;;23.85;;
60344;SDS011;46188;52.324;8.032;2023-05-07T04:37:44;39.03;;;25.40;;
60344;SDS011;46188;52.324;8.032;2023-05-07T04:40:09;37.70;;;24.88;;
60344;SDS011;46188;52.324;8.032;2023-05-07T04:42:35;38.63;;;25.75;;
60344;SDS011;46188;52.324;8.032;2023-05-07T04:45:00;35.75;;;24.75;;
60344;SDS011;46188;52.324;8.032;2023-05-07T04:47:27;42.80;;;24.27;;
60344;SDS011;46188;52.324;8.032;2023-05-07T04:49:52;40.05;;;24.10;;
60344;SDS011;46188;52.324;8.032;2023-05-07T04:52:17;43.40;;;26.88;;
60344;SDS011;46188;52.324;8.032;2023-05-07T04:54:42;38.83;;;25.15;;
60344;SDS011;46188;52.324;8.032;2023-05-07T04:57:07;37.63;;;23.55;;
60344;SDS011;46188;52.324;8.032;2023-05-07T04:59:33;37.15;;;23.92;;
60344;SDS011;46188;52.324;8.032;2023-05-07T05:01:58;35.35;;;24.48;;
60344;SDS011;46188;52.324;8.032;2023-05-07T05:04:23;35.30;;;23.83;;
60344;SDS011;46188;52.324;8.032;2023-05-07T05:06:49;34.38;;;23.80;;
60344;SDS011;46188;52.324;8.032;2023-05-07T05:09:14;39.97;;;24.92;;
60344;SDS011;46188;52.324;8.032;2023-05-07T05:11:40;36.17;;;24.50;;
60344;SDS011;46188;52.324;8.032;2023-05-07T05:14:06;37.88;;;23.63;;
60344;SDS011;46188;52.324;8.032;2023-05-07T05:16:31;34.50;;;23.20;;
60344;SDS011;46188;52.324;8.032;2023-05-07T05:18:56;36.30;;;24.33;;
60344;SDS011;46188;52.324;8.032;2023-05-07T05:21:21;35.60;;;23.90;;
60344;SDS011;46188;52.324;8.032;2023-05-07T05:23:47;33.17;;;22.65;;
60344;SDS011;46188;52.324;8.032;2023-05-07T05:26:12;35.40;;;23.88;;
60344;SDS011;46188;52.324;8.032;2023-05-07T05:28:37;40.17;;;25.23;;
60344;SDS011;46188;52.324;8.032;2023-05-07T05:31:03;36.20;;;23.20;;
60344;SDS011;46188;52.324;8.032;2023-05-07T05:33:28;40.75;;;24.17;;
60344;SDS011;46188;52.324;8.032;2023-05-07T05:35:54;34.13;;;24.38;;
60344;SDS011;46188;52.324;8.032;2023-05-07T05:38:19;39.85;;;25.42;;
60344;SDS011;46188;52.324;8.032;2023-05-07T05:40:45;39.03;;;23.60;;
60344;SDS011;46188;52.324;8.032;2023-05-07T05:43:11;37.83;;;24.17;;
60344;SDS011;46188;52.324;8.032;2023-05-07T05:45:36;36.83;;;23.25;;
60344;SDS011;46188;52.324;8.032;2023-05-07T05:48:01;41.03;;;24.48;;
60344;SDS011;46188;52.324;8.032;2023-05-07T05:50:27;36.40;;;23.05;;
60344;SDS011;46188;52.324;8.032;2023-05-07T05:52:52;36.08;;;22.50;;
60344;SDS011;46188;52.324;8.032;2023-05-07T05:55:17;38.35;;;24.45;;
60344;SDS011;46188;52.324;8.032;2023-05-07T05:57:42;35.33;;;22.60;;
60344;SDS011;46188;52.324;8.032;2023-05-07T06:00:08;38.22;;;23.17;;
60344;SDS011;46188;52.324;8.032;2023-05-07T06:02:34;35.78;;;22.83;;
60344;SDS011;46188;52.324;8.032;2023-05-07T06:04:59;35.85;;;24.25;;
60344;SDS011;46188;52.324;8.032;2023-05-07T06:07:24;33.63;;;23.02;;
60344;SDS011;46188;52.324;8.032;2023-05-07T06:09:50;36.67;;;23.02;;
60344;SDS011;46188;52.324;8.032;2023-05-07T06:12:15;33.85;;;22.10;;
60344;SDS011;46188;52.324;8.032;2023-05-07T06:14:42;33.78;;;22.52;;
60344;SDS011;46188;52.324;8.032;2023-05-07T06:17:08;39.15;;;24.10;;
60344;SDS011;46188;52.324;8.032;2023-05-07T06:19:33;35.33;;;21.73;;
60344;SDS011;46188;52.324;8.032;2023-05-07T06:21:58;31.90;;;21.02;;
60344;SDS011;46188;52.324;8.032;2023-05-07T06:24:26;34.78;;;21.83;;
60344;SDS011;46188;52.324;8.032;2023-05-07T06:26:51;33.28;;;21.70;;
60344;SDS011;46188;52.324;8.032;2023-05-07T06:29:16;32.95;;;20.83;;
60344;SDS011;46188;52.324;8.032;2023-05-07T06:31:41;32.28;;;21.83;;
60344;SDS011;46188;52.324;8.032;2023-05-07T06:34:07;29.25;;;20.20;;
60344;SDS011;46188;52.324;8.032;2023-05-07T06:36:32;35.95;;;22.02;;
60344;SDS011;46188;52.324;8.032;2023-05-07T06:38:57;30.95;;;21.13;;
60344;SDS011;46188;52.324;8.032;2023-05-07T06:41:23;30.60;;;20.40;;
60344;SDS011;46188;52.324;8.032;2023-05-07T06:43:48;34.03;;;22.20;;
60344;SDS011;46188;52.324;8.032;2023-05-07T06:46:13;30.88;;;21.30;;
60344;SDS011;46188;52.324;8.032;2023-05-07T06:48:38;29.42;;;20.02;;
60344;SDS011;46188;52.324;8.032;2023-05-07T06:51:04;29.58;;;18.90;;
60344;SDS011;46188;52.324;8.032;2023-05-07T06:53:29;31.98;;;21.33;;
60344;SDS011;46188;52.324;8.032;2023-05-07T06:55:55;28.25;;;18.88;;
60344;SDS011;46188;52.324;8.032;2023-05-07T06:58:21;25.67;;;17.90;;
60344;SDS011;46188;52.324;8.032;2023-05-07T07:00:46;26.17;;;18.65;;
60344;SDS011;46188;52.324;8.032;2023-05-07T07:03:11;28.20;;;19.23;;
60344;SDS011;46188;52.324;8.032;2023-05-07T07:05:37;27.38;;;17.63;;
60344;SDS011;46188;52.324;8.032;2023-05-07T07:08:02;28.70;;;18.08;;
60344;SDS011;46188;52.324;8.032;2023-05-07T07:10:27;25.35;;;17.10;;
60344;SDS011;46188;52.324;8.032;2023-05-07T07:12:52;23.00;;;17.25;;
60344;SDS011;46188;52.324;8.032;2023-05-07T07:15:17;24.63;;;17.38;;
60344;SDS011;46188;52.324;8.032;2023-05-07T07:17:45;26.55;;;18.55;;
60344;SDS011;46188;52.324;8.032;2023-05-07T07:20:10;23.38;;;17.50;;
60344;SDS011;46188;52.324;8.032;2023-05-07T07:22:36;24.95;;;17.45;;
60344;SDS011;46188;52.324;8.032;2023-05-07T07:25:01;21.35;;;15.75;;
60344;SDS011;46188;52.324;8.032;2023-05-07T07:27:26;22.05;;;15.82;;
60344;SDS011;46188;52.324;8.032;2023-05-07T07:29:51;22.90;;;15.80;;
60344;SDS011;46188;52.324;8.032;2023-05-07T07:32:17;20.10;;;15.98;;
60344;SDS011;46188;52.324;8.032;2023-05-07T07:34:42;22.08;;;16.27;;
60344;SDS011;46188;52.324;8.032;2023-05-07T07:37:07;23.98;;;15.90;;
60344;SDS011;46188;52.324;8.032;2023-05-07T07:39:32;21.27;;;16.10;;
60344;SDS011;46188;52.324;8.032;2023-05-07T07:41:58;19.60;;;15.00;;
60344;SDS011;46188;52.324;8.032;2023-05-07T07:44:23;19.33;;;14.57;;
60344;SDS011;46188;52.324;8.032;2023-05-07T07:46:48;21.40;;;16.25;;
60344;SDS011;46188;52.324;8.032;2023-05-07T07:49:14;23.00;;;15.70;;
60344;SDS011;46188;52.324;8.032;2023-05-07T07:51:40;21.15;;;14.93;;
60344;SDS011;46188;52.324;8.032;2023-05-07T07:54:05;18.17;;;14.82;;
60344;SDS011;46188;52.324;8.032;2023-05-07T07:56:31;20.67;;;13.95;;
60344;SDS011;46188;52.324;8.032;2023-05-07T07:58:58;20.08;;;14.63;;
60344;SDS011;46188;52.324;8.032;2023-05-07T08:01:23;19.63;;;14.60;;
60344;SDS011;46188;52.324;8.032;2023-05-07T08:03:49;19.15;;;14.23;;
60344;SDS011;46188;52.324;8.032;2023-05-07T08:06:14;19.45;;;14.95;;
60344;SDS011;46188;52.324;8.032;2023-05-07T08:08:40;18.63;;;14.15;;
60344;SDS011;46188;52.324;8.032;2023-05-07T08:11:05;19.08;;;13.43;;
60344;SDS011;46188;52.324;8.032;2023-05-07T08:13:30;18.20;;;13.18;;
60344;SDS011;46188;52.324;8.032;2023-05-07T08:15:56;19.75;;;13.90;;
60344;SDS011;46188;52.324;8.032;2023-05-07T08:18:21;17.90;;;12.65;;
60344;SDS011;46188;52.324;8.032;2023-05-07T08:20:48;18.00;;;13.27;;
60344;SDS011;46188;52.324;8.032;2023-05-07T08:23:13;16.50;;;13.38;;
60344;SDS011;46188;52.324;8.032;2023-05-07T08:25:38;18.15;;;13.80;;
60344;SDS011;46188;52.324;8.032;2023-05-07T08:28:04;18.23;;;13.18;;
60344;SDS011;46188;52.324;8.032;2023-05-07T08:30:29;16.63;;;12.63;;
60344;SDS011;46188;52.324;8.032;2023-05-07T08:32:54;18.33;;;13.27;;
60344;SDS011;46188;52.324;8.032;2023-05-07T08:35:20;18.48;;;12.40;;
60344;SDS011;46188;52.324;8.032;2023-05-07T08:37:45;15.55;;;11.45;;
60344;SDS011;46188;52.324;8.032;2023-05-07T08:40:10;15.73;;;12.60;;
60344;SDS011;46188;52.324;8.032;2023-05-07T08:42:36;14.85;;;11.80;;
60344;SDS011;46188;52.324;8.032;2023-05-07T08:45:04;16.70;;;12.27;;
60344;SDS011;46188;52.324;8.032;2023-05-07T08:47:34;14.70;;;12.18;;
60344;SDS011;46188;52.324;8.032;2023-05-07T08:50:07;16.88;;;11.85;;
60344;SDS011;46188;52.324;8.032;2023-05-07T08:52:32;15.65;;;11.93;;
60344;SDS011;46188;52.324;8.032;2023-05-07T08:54:58;13.68;;;10.63;;
60344;SDS011;46188;52.324;8.032;2023-05-07T08:57:24;15.23;;;11.68;;
60344;SDS011;46188;52.324;8.032;2023-05-07T08:59:50;15.98;;;11.27;;
60344;SDS011;46188;52.324;8.032;2023-05-07T09:02:15;14.57;;;12.30;;
60344;SDS011;46188;52.324;8.032;2023-05-07T09:04:41;14.57;;;11.82;;
60344;SDS011;46188;52.324;8.032;2023-05-07T09:07:06;14.38;;;11.30;;
60344;SDS011;46188;52.324;8.032;2023-05-07T09:09:32;15.10;;;11.95;;
60344;SDS011;46188;52.324;8.032;2023-05-07T09:11:58;14.60;;;10.63;;
60344;SDS011;46188;52.324;8.032;2023-05-07T09:14:24;14.20;;;11.13;;
60344;SDS011;46188;52.324;8.032;2023-05-07T09:16:51;13.55;;;10.80;;
60344;SDS011;46188;52.324;8.032;2023-05-07T09:19:22;14.23;;;10.70;;
60344;SDS011;46188;52.324;8.032;2023-05-07T09:21:48;12.82;;;9.85;;
60344;SDS011;46188;52.324;8.032;2023-05-07T09:24:14;15.77;;;10.55;;
60344;SDS011;46188;52.324;8.032;2023-05-07T09:26:40;13.57;;;10.30;;
60344;SDS011;46188;52.324;8.032;2023-05-07T09:29:06;12.73;;;9.82;;
60344;SDS011;46188;52.324;8.032;2023-05-07T09:31:35;13.63;;;9.95;;
60344;SDS011;46188;52.324;8.032;2023-05-07T09:34:02;11.77;;;9.45;;
60344;SDS011;46188;52.324;8.032;2023-05-07T09:36:29;15.63;;;10.10;;
60344;SDS011;46188;52.324;8.032;2023-05-07T09:38:59;12.80;;;9.75;;
60344;SDS011;46188;52.324;8.032;2023-05-07T09:41:25;11.18;;;9.05;;
60344;SDS011;46188;52.324;8.032;2023-05-07T09:43:54;11.77;;;9.75;;
60344;SDS011;46188;52.324;8.032;2023-05-07T09:46:20;11.27;;;9.38;;
60344;SDS011;46188;52.324;8.032;2023-05-07T09:48:52;12.15;;;8.70;;
60344;SDS011;46188;52.324;8.032;2023-05-07T09:51:24;13.02;;;10.15;;
60344;SDS011;46188;52.324;8.032;2023-05-07T09:56:18;10.95;;;8.20;;
60344;SDS011;46188;52.324;8.032;2023-05-07T09:58:45;11.77;;;9.05;;
60344;SDS011;46188;52.324;8.032;2023-05-07T10:01:11;11.55;;;8.65;;
60344;SDS011;46188;52.324;8.032;2023-05-07T10:03:39;10.38;;;8.52;;
60344;SDS011;46188;52.324;8.032;2023-05-07T10:06:05;10.73;;;8.90;;
60344;SDS011;46188;52.324;8.032;2023-05-07T10:08:33;11.57;;;9.30;;
60344;SDS011;46188;52.324;8.032;2023-05-07T10:10:59;11.88;;;8.75;;
60344;SDS011;46188;52.324;8.032;2023-05-07T10:13:24;11.25;;;8.63;;
60344;SDS011;46188;52.324;8.032;2023-05-07T10:15:50;10.98;;;9.02;;
60344;SDS011;46188;52.324;8.032;2023-05-07T10:18:16;12.05;;;9.45;;
60344;SDS011;46188;52.324;8.032;2023-05-07T10:20:41;11.38;;;8.43;;
60344;SDS011;46188;52.324;8.032;2023-05-07T10:23:07;10.07;;;8.45;;
60344;SDS011;46188;52.324;8.032;2023-05-07T10:25:37;9.82;;;8.40;;
60344;SDS011;46188;52.324;8.032;2023-05-07T10:28:04;9.48;;;8.10;;
60344;SDS011;46188;52.324;8.032;2023-05-07T10:33:19;10.73;;;8.80;;
60344;SDS011;46188;52.324;8.032;2023-05-07T10:35:49;15.90;;;8.75;;
60344;SDS011;46188;52.324;8.032;2023-05-07T10:38:15;10.13;;;9.02;;
60344;SDS011;46188;52.324;8.032;2023-05-07T10:40:40;10.55;;;8.18;;
60344;SDS011;46188;52.324;8.032;2023-05-07T10:43:05;9.75;;;8.05;;
60344;SDS011;46188;52.324;8.032;2023-05-07T10:45:31;9.80;;;8.25;;
60344;SDS011;46188;52.324;8.032;2023-05-07T10:48:13;9.88;;;8.13;;
60344;SDS011;46188;52.324;8.032;2023-05-07T10:50:40;9.23;;;7.32;;
60344;SDS011;46188;52.324;8.032;2023-05-07T10:55:45;8.40;;;7.32;;
60344;SDS011;46188;52.324;8.032;2023-05-07T11:00:46;11.07;;;7.70;;
60344;SDS011;46188;52.324;8.032;2023-05-07T11:03:12;16.50;;;7.88;;
60344;SDS011;46188;52.324;8.032;2023-05-07T11:05:39;10.07;;;8.02;;
60344;SDS011;46188;52.324;8.032;2023-05-07T11:08:05;8.75;;;6.57;;
60344;SDS011;46188;52.324;8.032;2023-05-07T11:13:40;10.27;;;7.32;;
60344;SDS011;46188;52.324;8.032;2023-05-07T11:16:16;7.95;;;6.80;;
60344;SDS011;46188;52.324;8.032;2023-05-07T11:18:50;9.18;;;6.82;;
60344;SDS011;46188;52.324;8.032;2023-05-07T11:24:05;7.85;;;7.00;;
60344;SDS011;46188;52.324;8.032;2023-05-07T11:26:42;7.72;;;6.65;;
60344;SDS011;46188;52.324;8.032;2023-05-07T11:29:11;8.15;;;7.07;;
60344;SDS011;46188;52.324;8.032;2023-05-07T11:31:38;9.27;;;7.13;;
60344;SDS011;46188;52.324;8.032;2023-05-07T11:34:03;7.65;;;6.57;;
60344;SDS011;46188;52.324;8.032;2023-05-07T11:36:30;8.48;;;7.10;;
60344;SDS011;46188;52.324;8.032;2023-05-07T11:38:57;8.88;;;6.95;;
60344;SDS011;46188;52.324;8.032;2023-05-07T11:41:22;8.07;;;6.32;;
60344;SDS011;46188;52.324;8.032;2023-05-07T11:43:54;7.45;;;5.97;;
60344;SDS011;46188;52.324;8.032;2023-05-07T11:46:21;11.90;;;6.78;;
60344;SDS011;46188;52.324;8.032;2023-05-07T11:48:46;6.30;;;5.63;;
60344;SDS011;46188;52.324;8.032;2023-05-07T11:51:12;11.63;;;6.75;;
60344;SDS011;46188;52.324;8.032;2023-05-07T11:53:38;8.70;;;6.53;;
60344;SDS011;46188;52.324;8.032;2023-05-07T11:56:11;8.30;;;6.68;;
60344;SDS011;46188;52.324;8.032;2023-05-07T11:58:39;8.53;;;6.80;;
60344;SDS011;46188;52.324;8.032;2023-05-07T12:01:07;8.65;;;6.95;;
60344;SDS011;46188;52.324;8.032;2023-05-07T12:03:33;9.88;;;6.75;;
60344;SDS011;46188;52.324;8.032;2023-05-07T12:05:59;8.40;;;6.68;;
60344;SDS011;46188;52.324;8.032;2023-05-07T12:08:25;7.45;;;6.57;;
60344;SDS011;46188;52.324;8.032;2023-05-07T12:10:50;8.93;;;6.93;;
60344;SDS011;46188;52.324;8.032;2023-05-07T12:13:22;8.25;;;7.10;;
60344;SDS011;46188;52.324;8.032;2023-05-07T12:15:53;9.73;;;6.97;;
60344;SDS011;46188;52.324;8.032;2023-05-07T12:18:19;8.15;;;6.90;;
60344;SDS011;46188;52.324;8.032;2023-05-07T12:20:45;9.20;;;7.00;;
60344;SDS011;46188;52.324;8.032;2023-05-07T12:23:11;8.77;;;7.07;;
60344;SDS011;46188;52.324;8.032;2023-05-07T12:25:37;8.88;;;7.40;;
60344;SDS011;46188;52.324;8.032;2023-05-07T12:28:04;11.07;;;7.80;;
60344;SDS011;46188;52.324;8.032;2023-05-07T12:30:36;8.05;;;6.85;;
60344;SDS011;46188;52.324;8.032;2023-05-07T12:33:02;8.38;;;7.43;;
60344;SDS011;46188;52.324;8.032;2023-05-07T12:35:28;8.25;;;7.00;;
60344;SDS011;46188;52.324;8.032;2023-05-07T12:37:54;14.98;;;7.10;;
60344;SDS011;46188;52.324;8.032;2023-05-07T12:40:24;8.50;;;7.03;;
60344;SDS011;46188;52.324;8.032;2023-05-07T12:43:00;9.32;;;7.05;;
60344;SDS011;46188;52.324;8.032;2023-05-07T12:45:25;8.93;;;6.63;;
60344;SDS011;46188;52.324;8.032;2023-05-07T12:47:51;7.03;;;6.25;;
60344;SDS011;46188;52.324;8.032;2023-05-07T12:50:16;11.48;;;6.95;;
60344;SDS011;46188;52.324;8.032;2023-05-07T12:52:45;10.68;;;6.45;;
60344;SDS011;46188;52.324;8.032;2023-05-07T12:55:13;8.18;;;6.28;;
60344;SDS011;46188;52.324;8.032;2023-05-07T12:57:41;10.65;;;7.15;;
60344;SDS011;46188;52.324;8.032;2023-05-07T13:00:08;7.40;;;6.22;;
60344;SDS011;46188;52.324;8.032;2023-05-07T13:02:36;8.75;;;7.05;;
60344;SDS011;46188;52.324;8.032;2023-05-07T13:05:03;10.30;;;7.50;;
60344;SDS011;46188;52.324;8.032;2023-05-07T13:07:28;8.73;;;6.50;;
60344;SDS011;46188;52.324;8.032;2023-05-07T13:09:54;7.78;;;5.70;;
60344;SDS011;46188;52.324;8.032;2023-05-07T13:12:19;7.78;;;5.95;;
60344;SDS011;46188;52.324;8.032;2023-05-07T13:14:44;9.63;;;7.53;;
60344;SDS011;46188;52.324;8.032;2023-05-07T13:17:10;9.37;;;6.80;;
60344;SDS011;46188;52.324;8.032;2023-05-07T13:19:35;12.13;;;5.77;;
60344;SDS011;46188;52.324;8.032;2023-05-07T13:22:02;8.35;;;6.68;;
60344;SDS011;46188;52.324;8.032;2023-05-07T13:24:27;7.97;;;6.00;;
60344;SDS011;46188;52.324;8.032;2023-05-07T13:26:52;10.30;;;6.50;;
60344;SDS011;46188;52.324;8.032;2023-05-07T13:29:18;7.47;;;6.30;;
60344;SDS011;46188;52.324;8.032;2023-05-07T13:31:43;5.90;;;5.25;;
60344;SDS011;46188;52.324;8.032;2023-05-07T13:34:09;8.90;;;6.05;;
60344;SDS011;46188;52.324;8.032;2023-05-07T13:36:34;8.32;;;6.40;;
60344;SDS011;46188;52.324;8.032;2023-05-07T13:39:02;7.22;;;5.93;;
60344;SDS011;46188;52.324;8.032;2023-05-07T13:41:28;8.85;;;6.53;;
60344;SDS011;46188;52.324;8.032;2023-05-07T13:43:53;8.15;;;6.13;;
60344;SDS011;46188;52.324;8.032;2023-05-07T13:46:18;7.37;;;6.13;;
60344;SDS011;46188;52.324;8.032;2023-05-07T13:48:44;7.13;;;6.20;;
60344;SDS011;46188;52.324;8.032;2023-05-07T13:51:09;7.10;;;5.90;;
60344;SDS011;46188;52.324;8.032;2023-05-07T13:53:34;6.95;;;5.93;;
60344;SDS011;46188;52.324;8.032;2023-05-07T13:56:00;7.70;;;5.38;;
60344;SDS011;46188;52.324;8.032;2023-05-07T13:58:26;8.80;;;5.63;;
60344;SDS011;46188;52.324;8.032;2023-05-07T14:00:51;8.13;;;5.63;;
60344;SDS011;46188;52.324;8.032;2023-05-07T14:03:17;6.90;;;5.13;;
60344;SDS011;46188;52.324;8.032;2023-05-07T14:05:44;6.57;;;5.55;;
60344;SDS011;46188;52.324;8.032;2023-05-07T14:08:09;7.35;;;5.90;;
60344;SDS011;46188;52.324;8.032;2023-05-07T14:10:35;6.65;;;5.80;;
60344;SDS011;46188;52.324;8.032;2023-05-07T14:13:01;6.68;;;5.13;;
60344;SDS011;46188;52.324;8.032;2023-05-07T14:15:26;7.07;;;5.32;;
60344;SDS011;46188;52.324;8.032;2023-05-07T14:17:51;5.38;;;4.53;;
60344;SDS011;46188;52.324;8.032;2023-05-07T14:20:16;7.05;;;5.32;;
60344;SDS011;46188;52.324;8.032;2023-05-07T14:22:42;5.82;;;4.60;;
60344;SDS011;46188;52.324;8.032;2023-05-07T14:25:07;7.03;;;4.50;;
60344;SDS011;46188;52.324;8.032;2023-05-07T14:27:34;8.57;;;4.90;;
60344;SDS011;46188;52.324;8.032;2023-05-07T14:29:59;6.28;;;4.97;;
60344;SDS011;46188;52.324;8.032;2023-05-07T14:32:24;7.22;;;4.30;;
60344;SDS011;46188;52.324;8.032;2023-05-07T14:34:50;4.75;;;4.25;;
60344;SDS011;46188;52.324;8.032;2023-05-07T14:37:15;5.57;;;4.97;;